Time;durP1;ratioP1;P1;durP2;ratioP2;P2;SDS_P1;SDS_P2;PMS_P1;PMS_P2;Temp;Humidity;BMP_temperature;BMP_pressure;BME280_temperature;BME280_humidity;BME280_pressure;Samples;Min_cycle;Max_cycle;Signal;HPM_P1;HPM_P2
2022/06/24 00:02:02;;;;;;;2.20;1.30;;;;;;;18.46;58.82;100266.47;5530211;32;34631;-67
2022/06/24 00:05:13;;;;;;;2.65;1.70;;;;;;;18.55;58.76;100257.94;5531290;32;34941;-67
2022/06/24 00:08:18;;;;;;;1.87;1.50;;;;;;;18.46;59.12;100261.94;5530564;32;34126;-67
2022/06/24 00:11:23;;;;;;;4.00;1.30;;;;;;;18.28;59.36;100266.44;5531406;32;33947;-67
2022/06/24 00:14:25;;;;;;;2.28;1.62;;;;;;;18.09;60.14;100266.41;5530727;32;33918;-67
2022/06/24 00:17:32;;;;;;;4.70;1.60;;;;;;;17.96;60.99;100263.81;5531390;32;33890;-66
2022/06/24 00:20:44;;;;;;;2.75;1.62;;;;;;;17.97;62.47;100265.47;5530412;32;34082;-67
2022/06/24 00:23:47;;;;;;;3.35;1.73;;;;;;;17.88;62.53;100272.13;5531225;32;33960;-67
2022/06/24 00:26:50;;;;;;;2.47;1.45;;;;;;;17.81;62.88;100268.69;5531195;32;34579;-67
2022/06/24 00:29:54;;;;;;;2.42;1.50;;;;;;;17.71;63.15;100266.50;5531032;32;34539;-67
2022/06/24 00:33:19;;;;;;;2.53;1.50;;;;;;;17.72;63.05;100270.81;5531133;32;34746;-67
2022/06/24 00:36:22;;;;;;;4.60;1.40;;;;;;;17.65;63.14;100269.22;5531049;32;34746;-67
2022/06/24 00:39:33;;;;;;;2.53;1.48;;;;;;;17.58;63.30;100274.56;5530773;32;34261;-67
2022/06/24 00:42:42;;;;;;;2.70;1.48;;;;;;;17.57;63.71;100269.44;5530999;32;34387;-67
2022/06/24 00:45:51;;;;;;;3.08;1.85;;;;;;;17.56;63.12;100270.47;5530175;32;35141;-67
2022/06/24 00:48:57;;;;;;;3.22;1.70;;;;;;;17.54;63.43;100259.97;5530968;32;34717;-67
2022/06/24 00:52:07;;;;;;;2.85;1.60;;;;;;;17.45;63.23;100265.78;5530928;32;34345;-68
2022/06/24 00:55:10;;;;;;;4.50;1.80;;;;;;;17.38;62.88;100263.97;5530760;32;34149;-68
2022/06/24 00:58:16;;;;;;;3.15;1.50;;;;;;;17.31;63.21;100260.50;5530693;32;34003;-67
2022/06/24 01:01:29;;;;;;;4.72;1.80;;;;;;;17.29;63.78;100261.75;5530361;32;34631;-68
2022/06/24 01:04:34;;;;;;;2.95;1.50;;;;;;;17.32;63.37;100261.34;5530691;32;33998;-68
2022/06/24 01:07:40;;;;;;;7.15;1.73;;;;;;;17.65;62.97;100258.47;5530570;32;34649;-67
2022/06/24 01:10:48;;;;;;;4.50;1.55;;;;;;;17.47;63.20;100258.38;5530837;32;34151;-68
2022/06/24 01:13:52;;;;;;;2.90;1.55;;;;;;;17.38;63.46;100255.91;5530672;32;34431;-67
2022/06/24 01:16:54;;;;;;;5.82;1.75;;;;;;;17.26;63.94;100254.13;5530625;32;34634;-67
2022/06/24 01:19:57;;;;;;;2.78;1.50;;;;;;;17.22;64.82;100250.25;5530587;32;35396;-68
2022/06/24 01:23:00;;;;;;;2.87;1.30;;;;;;;17.40;64.17;100250.34;5530487;32;34019;-68
2022/06/24 01:26:03;;;;;;;4.05;1.65;;;;;;;17.68;63.23;100253.50;5530611;32;34682;-67
2022/06/24 01:29:06;;;;;;;3.12;1.75;;;;;;;17.75;62.12;100256.16;5530257;32;34663;-68
2022/06/24 01:32:09;;;;;;;2.25;1.40;;;;;;;17.69;62.41;100257.84;5530310;32;34047;-66
2022/06/24 01:35:13;;;;;;;7.90;1.92;;;;;;;17.67;63.75;100257.22;5530290;32;34366;-66
2022/06/24 01:38:16;;;;;;;4.37;1.70;;;;;;;17.57;65.17;100258.72;5530194;32;34697;-66
2022/06/24 01:41:19;;;;;;;3.22;1.60;;;;;;;17.50;65.58;100261.44;5530069;32;34774;-67
2022/06/24 01:44:22;;;;;;;3.50;1.52;;;;;;;17.49;66.10;100250.91;5530103;32;33899;-67
2022/06/24 01:47:25;;;;;;;3.78;2.25;;;;;;;17.49;66.07;100259.78;5529288;32;34565;-67
2022/06/24 01:50:28;;;;;;;5.15;2.05;;;;;;;17.43;66.21;100249.91;5530335;32;34244;-66
2022/06/24 01:53:31;;;;;;;1.70;1.40;;;;;;;17.29;66.87;100262.56;5529248;32;34132;-66
2022/06/24 01:56:34;;;;;;;4.93;1.73;;;;;;;17.42;67.98;100250.16;5529824;32;33975;-67
2022/06/24 01:59:37;;;;;;;4.43;1.75;;;;;;;17.39;68.66;100259.44;5524585;32;137338;-67
2022/06/24 02:02:39;;;;;;;4.62;1.77;;;;;;;17.27;70.41;100253.13;5529683;32;34606;-66
2022/06/24 02:05:47;;;;;;;2.65;1.85;;;;;;;17.23;71.10;100257.25;5529729;32;35238;-67
2022/06/24 02:08:51;;;;;;;6.05;1.37;;;;;;;17.16;71.08;100253.78;5531010;32;34686;-67
2022/06/24 02:15:16;;;;;;;2.83;1.73;;;;;;;17.03;70.15;100243.94;5532265;32;34623;-67
2022/06/24 02:18:18;;;;;;;8.57;2.03;;;;;;;16.97;69.32;100244.78;5532556;32;35277;-67
2022/06/24 02:21:22;;;;;;;10.32;1.98;;;;;;;16.88;70.99;100238.84;5532120;32;34077;-66
2022/06/24 02:24:25;;;;;;;4.40;1.90;;;;;;;16.70;71.36;100244.03;5532230;32;34627;-67
2022/06/24 02:27:28;;;;;;;3.20;1.77;;;;;;;16.54;69.52;100241.81;5532444;32;34706;-67
2022/06/24 02:30:31;;;;;;;3.62;1.80;;;;;;;16.54;67.79;100236.44;5532155;32;35287;-67
2022/06/24 02:33:34;;;;;;;2.80;1.80;;;;;;;16.51;68.52;100248.38;5532420;32;33936;-67
2022/06/24 02:36:37;;;;;;;3.37;1.75;;;;;;;16.59;68.20;100254.59;5532104;32;32620;-67
2022/06/24 02:39:39;;;;;;;2.80;1.77;;;;;;;16.56;66.72;100257.66;5532079;32;33956;-67
2022/06/24 02:42:43;;;;;;;3.67;1.92;;;;;;;16.45;67.19;100253.78;5531948;32;34133;-66
2022/06/24 02:45:51;;;;;;;3.83;1.92;;;;;;;16.43;66.24;100250.47;5531999;32;33911;-67
2022/06/24 02:48:54;;;;;;;3.17;1.75;;;;;;;16.44;66.73;100252.94;5531935;32;34580;-67
2022/06/24 02:51:57;;;;;;;3.03;1.73;;;;;;;16.38;66.62;100253.78;5531958;32;35289;-67
2022/06/24 02:55:00;;;;;;;2.80;1.80;;;;;;;16.32;66.67;100248.41;5531935;32;33907;-67
2022/06/24 02:58:05;;;;;;;3.78;1.75;;;;;;;16.32;66.81;100245.75;5531889;32;34604;-67
2022/06/24 03:01:08;;;;;;;4.78;1.77;;;;;;;16.30;66.62;100250.50;5531120;32;33921;-67
2022/06/24 03:04:11;;;;;;;5.05;2.67;;;;;;;16.26;66.86;100250.09;5531835;32;34565;-67
2022/06/24 03:07:14;;;;;;;4.87;1.80;;;;;;;16.28;66.77;100244.53;5531782;32;34090;-67
2022/06/24 03:10:17;;;;;;;4.68;2.12;;;;;;;16.34;66.67;100257.09;5531807;32;34423;-67
2022/06/24 03:13:20;;;;;;;6.15;2.25;;;;;;;16.41;66.70;100247.19;5531617;32;34589;-67
2022/06/24 03:16:23;;;;;;;3.90;1.70;;;;;;;16.45;66.63;100251.94;5531686;32;34649;-67
2022/06/24 03:19:25;;;;;;;2.20;1.80;;;;;;;16.45;66.67;100248.44;5531578;32;33896;-67
2022/06/24 03:22:29;;;;;;;4.65;1.70;;;;;;;16.47;67.19;100257.06;5531671;32;33999;-67
2022/06/24 03:25:33;;;;;;;5.28;1.85;;;;;;;16.72;66.80;100263.41;5531686;32;34364;-67
2022/06/24 03:28:35;;;;;;;3.05;1.80;;;;;;;16.97;66.71;100260.87;5531440;32;34609;-67
2022/06/24 03:31:38;;;;;;;2.70;1.77;;;;;;;16.96;66.79;100264.56;5531598;32;33847;-67
2022/06/24 03:34:40;;;;;;;2.60;1.48;;;;;;;17.05;65.80;100262.47;5531585;32;34409;-67
2022/06/24 03:37:44;;;;;;;2.28;1.65;;;;;;;17.13;65.23;100257.72;5531943;32;33774;-67
2022/06/24 03:40:47;;;;;;;6.68;1.85;;;;;;;17.13;64.62;100262.25;5531429;32;34155;-67
2022/06/24 03:43:49;;;;;;;5.60;2.22;;;;;;;17.19;64.49;100264.88;5531411;32;34043;-66
2022/06/24 03:46:52;;;;;;;2.25;1.60;;;;;;;17.24;64.38;100258.88;5531815;32;35296;-67
2022/06/24 03:49:55;;;;;;;4.05;1.65;;;;;;;17.33;64.27;100263.78;5531492;32;34017;-67
2022/06/24 03:52:58;;;;;;;1.73;1.48;;;;;;;17.42;64.27;100264.37;5531397;32;34047;-68
2022/06/24 03:56:01;;;;;;;3.15;1.75;;;;;;;17.60;65.95;100266.34;5530868;32;34611;-68
2022/06/24 03:59:03;;;;;;;4.40;1.85;;;;;;;17.68;64.96;100268.78;5531341;32;34169;-68
2022/06/24 04:02:06;;;;;;;2.75;1.70;;;;;;;17.69;64.02;100273.94;5531197;32;33884;-67
2022/06/24 04:05:10;;;;;;;3.58;1.80;;;;;;;17.93;61.43;100274.16;5531390;32;34407;-68
2022/06/24 04:08:15;;;;;;;5.37;1.80;;;;;;;18.16;61.42;100277.91;5530867;32;34040;-69
2022/06/24 04:11:17;;;;;;;3.97;1.73;;;;;;;18.15;61.15;100273.56;5530696;32;32653;-68
2022/06/24 04:17:44;;;;;;;3.40;1.30;;;;;;;18.41;61.86;100279.75;5515093;32;34040;-68
2022/06/24 04:20:47;;;;;;;7.20;1.90;;;;;;;18.59;60.17;100272.56;5531228;32;34381;-67
2022/06/24 04:23:51;;;;;;;5.60;1.80;;;;;;;18.77;58.56;100284.37;5531120;32;34205;-68
2022/06/24 04:26:53;;;;;;;3.55;1.70;;;;;;;18.77;56.79;100274.47;5531158;32;34028;-68
2022/06/24 04:30:08;;;;;;;4.45;1.75;;;;;;;18.80;58.44;100289.31;5530671;32;33975;-68
2022/06/24 04:33:11;;;;;;;2.08;1.50;;;;;;;18.93;56.97;100286.47;5530214;32;34541;-68
2022/06/24 04:36:15;;;;;;;3.00;1.70;;;;;;;19.19;55.16;100279.94;5531029;32;33992;-68
2022/06/24 04:39:18;;;;;;;2.87;1.67;;;;;;;19.33;54.90;100278.75;5530486;32;34541;-68
2022/06/24 04:42:21;;;;;;;3.03;1.60;;;;;;;19.35;55.07;100277.47;5530806;32;34542;-68
2022/06/24 04:45:24;;;;;;;4.22;1.60;;;;;;;19.34;54.80;100286.59;5530665;32;34259;-68
2022/06/24 04:48:27;;;;;;;4.28;1.65;;;;;;;19.39;54.52;100285.91;5530717;32;34638;-68
2022/06/24 04:51:30;;;;;;;3.53;1.80;;;;;;;19.46;53.49;100292.84;5530139;32;33963;-68
2022/06/24 04:54:35;;;;;;;2.00;1.35;;;;;;;19.78;52.25;100292.62;5530684;32;34166;-67
2022/06/24 04:57:38;;;;;;;4.85;1.70;;;;;;;19.83;51.81;100292.75;5530647;32;34659;-67
2022/06/24 05:00:42;;;;;;;2.12;1.60;;;;;;;19.87;52.11;100292.06;5530243;32;34281;-68
2022/06/24 05:03:45;;;;;;;2.85;1.50;;;;;;;19.92;52.02;100294.06;5530202;32;34589;-68
2022/06/24 05:06:49;;;;;;;4.53;1.67;;;;;;;19.95;51.40;100280.97;5530277;32;33848;-68
2022/06/24 05:09:52;;;;;;;4.05;1.50;;;;;;;19.99;51.88;100285.91;5530353;32;34701;-68
2022/06/24 05:12:55;;;;;;;4.70;1.60;;;;;;;20.12;51.35;100281.13;5530363;32;34086;-67
2022/06/24 05:15:58;;;;;;;3.20;1.58;;;;;;;20.17;50.82;100281.25;5530249;32;34065;-68
2022/06/24 05:19:23;;;;;;;4.72;1.73;;;;;;;20.24;52.43;100289.19;5530213;32;34800;-68
2022/06/24 05:22:26;;;;;;;3.83;1.40;;;;;;;20.45;51.70;100290.53;5530339;32;34030;-68
2022/06/24 05:25:29;;;;;;;8.98;1.80;;;;;;;20.57;50.07;100292.19;5530348;32;34382;-69
2022/06/24 05:28:35;;;;;;;3.60;1.70;;;;;;;20.68;49.71;100298.59;5529851;32;33871;-69
2022/06/24 05:31:38;;;;;;;3.85;1.87;;;;;;;20.69;50.56;100297.56;5529322;32;34659;-68
2022/06/24 05:34:41;;;;;;;6.82;1.60;;;;;;;20.67;49.46;100294.28;5530396;32;35282;-68
2022/06/24 05:37:43;;;;;;;2.72;1.85;;;;;;;20.76;49.18;100292.88;5530073;32;33846;-69
2022/06/24 05:40:47;;;;;;;5.62;1.80;;;;;;;20.90;48.82;100290.75;5530147;32;34020;-69
2022/06/24 05:43:50;;;;;;;4.15;1.70;;;;;;;21.03;50.34;100298.56;5531302;32;34116;-69
2022/06/24 05:46:54;;;;;;;4.37;1.73;;;;;;;21.11;47.67;100300.88;5532035;32;34132;-68
2022/06/24 05:49:58;;;;;;;4.22;1.35;;;;;;;21.19;48.10;100305.94;5532172;32;33817;-69
2022/06/24 05:56:22;;;;;;;4.62;1.40;;;;;;;21.31;47.23;100320.22;5531955;32;34993;-67
2022/06/24 05:59:24;;;;;;;2.40;1.60;;;;;;;21.54;47.11;100317.44;5531909;32;34606;-67
2022/06/24 06:02:27;;;;;;;3.00;1.42;;;;;;;21.66;46.07;100307.41;5531835;32;34587;-69
2022/06/24 06:05:31;;;;;;;2.70;1.50;;;;;;;21.62;46.41;100308.13;5531919;32;34629;-68
2022/06/24 06:08:37;;;;;;;2.08;1.30;;;;;;;21.84;45.25;100311.78;5530848;32;32441;-69
2022/06/24 06:11:40;;;;;;;2.22;1.42;;;;;;;21.84;45.73;100311.78;5531813;32;33878;-69
2022/06/24 06:14:44;;;;;;;2.78;1.33;;;;;;;21.92;46.44;100313.28;5531676;32;34430;-68
2022/06/24 06:17:47;;;;;;;3.72;1.60;;;;;;;22.02;46.62;100311.59;5531828;32;34234;-68
2022/06/24 06:20:50;;;;;;;4.50;1.27;;;;;;;22.16;46.91;100305.88;5531521;32;34680;-68
2022/06/24 06:23:52;;;;;;;2.33;1.30;;;;;;;22.25;45.96;100310.63;5531566;32;34720;-68
2022/06/24 06:26:55;;;;;;;2.12;1.50;;;;;;;22.45;44.86;100316.34;5531704;32;34025;-69
2022/06/24 06:29:58;;;;;;;3.10;1.37;;;;;;;22.62;44.52;100308.22;5530841;32;33264;-69
2022/06/24 06:33:00;;;;;;;2.00;1.27;;;;;;;22.68;45.13;100312.63;5531398;32;34785;-69
2022/06/24 06:36:03;;;;;;;5.75;1.30;;;;;;;22.85;43.24;100307.22;5531621;32;34731;-70
2022/06/24 06:39:06;;;;;;;2.62;1.40;;;;;;;23.02;44.29;100305.28;5531497;32;33959;-69
2022/06/24 06:42:08;;;;;;;2.72;1.60;;;;;;;23.14;43.12;100302.47;5531488;32;34529;-69
2022/06/24 06:45:17;;;;;;;1.95;1.42;;;;;;;23.30;42.65;100306.97;5531896;32;34547;-69
2022/06/24 06:48:21;;;;;;;5.25;1.60;;;;;;;23.38;42.37;100298.44;5531113;32;34890;-68
2022/06/24 06:51:23;;;;;;;4.60;1.40;;;;;;;23.54;41.32;100292.13;5531293;32;34034;-68
2022/06/24 06:54:26;;;;;;;3.12;1.30;;;;;;;23.60;41.76;100288.41;5530964;32;34638;-69
2022/06/24 06:57:28;;;;;;;1.73;1.33;;;;;;;23.78;40.97;100281.78;5530664;32;33897;-68
2022/06/24 07:00:33;;;;;;;2.70;1.40;;;;;;;23.97;42.91;100291.19;5531668;32;33953;-69
2022/06/24 07:03:37;;;;;;;3.85;1.27;;;;;;;24.04;40.80;100283.66;5518092;32;33931;-68
2022/06/24 07:06:40;;;;;;;1.67;1.10;;;;;;;24.29;39.29;100282.25;5531675;32;35254;-68
2022/06/24 07:09:43;;;;;;;2.83;1.60;;;;;;;24.52;38.25;100282.69;5531516;32;34484;-70
2022/06/24 07:12:45;;;;;;;7.60;1.58;;;;;;;24.81;38.15;100274.16;5531592;32;34541;-69
2022/06/24 07:15:48;;;;;;;2.30;1.30;;;;;;;24.94;36.41;100287.28;5531684;32;34293;-67
2022/06/24 07:18:51;;;;;;;2.62;1.40;;;;;;;25.18;37.49;100279.50;5531765;32;35512;-69
2022/06/24 07:21:54;;;;;;;2.00;1.35;;;;;;;25.31;35.70;100282.56;5531459;32;33917;-69
2022/06/24 07:24:57;;;;;;;7.35;1.50;;;;;;;25.65;35.97;100272.09;5531934;32;35221;-69
2022/06/24 07:28:02;;;;;;;4.62;1.30;;;;;;;25.98;35.11;100284.34;5530571;32;32582;-68
2022/06/24 07:31:18;;;;;;;1.45;1.10;;;;;;;26.19;35.07;100271.56;5531395;32;34547;-68
2022/06/24 07:34:21;;;;;;;3.97;1.02;;;;;;;26.52;34.78;100270.19;5531203;32;34074;-67
2022/06/24 07:37:25;;;;;;;2.92;1.20;;;;;;;26.85;34.86;100268.72;5530286;32;33345;-68
2022/06/24 07:40:28;;;;;;;16.65;1.52;;;;;;;27.33;34.03;100272.62;5530352;32;32559;-68
2022/06/24 07:43:31;;;;;;;2.10;1.35;;;;;;;27.80;32.41;100264.72;5531236;32;34052;-67
2022/06/24 07:46:33;;;;;;;5.37;1.00;;;;;;;27.97;30.39;100265.13;5531538;32;33905;-67
2022/06/24 07:49:37;;;;;;;4.78;1.40;;;;;;;29.01;30.99;100264.66;5531160;32;34128;-67
2022/06/24 07:52:39;;;;;;;2.28;1.15;;;;;;;29.66;28.06;100261.03;5531214;32;34215;-68
2022/06/24 07:59:05;;;;;;;2.90;1.05;;;;;;;30.13;27.51;100254.53;5531156;32;33963;-69
2022/06/24 08:02:08;;;;;;;3.75;1.35;;;;;;;30.85;28.18;100254.84;5530836;32;33915;-69
2022/06/24 08:05:11;;;;;;;4.87;1.00;;;;;;;30.91;27.16;100255.56;5530301;32;34556;-68
2022/06/24 08:08:14;;;;;;;1.80;1.10;;;;;;;31.62;26.79;100246.63;5530300;32;33925;-69
2022/06/24 08:11:18;;;;;;;2.03;1.08;;;;;;;31.65;25.47;100247.97;5530974;32;33932;-69
2022/06/24 08:14:22;;;;;;;1.87;1.20;;;;;;;31.92;25.29;100243.16;5530922;32;34607;-68
2022/06/24 08:17:25;;;;;;;1.73;1.05;;;;;;;31.53;25.92;100248.47;5530350;32;33975;-68
2022/06/24 08:20:30;;;;;;;1.80;1.10;;;;;;;31.97;24.10;100238.66;5530889;32;34244;-68
2022/06/24 08:23:33;;;;;;;1.62;1.00;;;;;;;32.68;25.03;100240.34;5530995;32;33931;-69
2022/06/24 08:26:36;;;;;;;1.30;0.95;;;;;;;33.39;22.78;100232.78;5531022;32;34675;-70
2022/06/24 08:29:39;;;;;;;5.97;0.98;;;;;;;34.28;22.28;100230.09;5530991;32;34077;-69
2022/06/24 08:32:41;;;;;;;2.17;1.10;;;;;;;33.68;22.96;100240.41;5530914;32;34222;-69
2022/06/24 08:35:45;;;;;;;1.15;0.90;;;;;;;34.55;22.21;100239.91;5530866;32;34145;-70
2022/06/24 08:38:48;;;;;;;1.90;1.00;;;;;;;33.87;22.57;100233.44;5530136;32;34603;-69
2022/06/24 08:41:56;;;;;;;1.50;1.00;;;;;;;34.77;21.46;100233.31;5529281;32;33793;-69
2022/06/24 08:44:59;;;;;;;4.07;1.20;;;;;;;34.35;22.18;100235.09;5530803;32;33991;-69
2022/06/24 08:48:07;;;;;;;6.30;1.23;;;;;;;35.33;21.41;100234.78;5530464;32;34716;-69
2022/06/24 08:51:12;;;;;;;1.52;1.10;;;;;;;35.29;21.35;100225.56;5529897;32;34352;-69
2022/06/24 08:54:27;;;;;;;5.82;1.00;;;;;;;35.68;20.60;100227.84;5530641;32;34133;-69
2022/06/24 08:57:31;;;;;;;3.33;1.00;;;;;;;34.04;21.52;100225.12;5530772;32;34031;-69
2022/06/24 09:00:48;;;;;;;5.10;1.20;;;;;;;35.10;20.60;100222.44;5530400;32;34420;-70
2022/06/24 09:03:51;;;;;;;2.35;1.17;;;;;;;36.15;20.70;100214.56;5530207;32;34050;-69
2022/06/24 09:07:02;;;;;;;3.20;1.30;;;;;;;35.36;19.98;100222.25;5530322;32;34606;-70
2022/06/24 09:10:10;;;;;;;4.53;1.15;;;;;;;35.91;20.72;100224.72;5529984;32;33969;-68
2022/06/24 09:13:21;;;;;;;1.80;0.90;;;;;;;36.42;19.46;100215.03;5529330;32;33874;-69
2022/06/24 09:16:25;;;;;;;3.58;0.93;;;;;;;38.05;17.75;100217.28;5530513;32;34579;-69
2022/06/24 09:19:32;;;;;;;2.53;1.10;;;;;;;37.44;18.75;100218.31;5529782;32;34015;-69
2022/06/24 09:22:38;;;;;;;1.90;0.80;;;;;;;37.86;17.93;100210.41;5529403;32;34262;-69
2022/06/24 09:25:47;;;;;;;1.87;1.02;;;;;;;37.96;18.88;100206.31;5530135;32;34582;-69
2022/06/24 09:28:55;;;;;;;2.78;1.02;;;;;;;36.63;18.98;100203.91;5529528;32;34949;-69
2022/06/24 09:32:04;;;;;;;2.37;0.90;;;;;;;37.53;18.68;100209.87;5529645;32;34284;-69
2022/06/24 09:35:08;;;;;;;3.10;1.00;;;;;;;36.97;17.99;100207.00;5529016;32;33095;-69
2022/06/24 09:38:11;;;;;;;3.12;1.20;;;;;;;36.75;18.53;100196.41;5529893;32;34003;-69
2022/06/24 09:41:13;;;;;;;3.15;1.10;;;;;;;37.87;18.70;100197.38;5529315;32;32461;-70
2022/06/24 09:44:18;;;;;;;5.62;1.27;;;;;;;37.54;18.21;100202.38;5529486;32;34046;-68
2022/06/24 09:47:24;;;;;;;2.92;1.20;;;;;;;36.88;18.32;100200.78;5530275;32;34135;-70
2022/06/24 09:50:27;;;;;;;3.22;1.17;;;;;;;36.57;18.28;100204.13;5529888;32;34567;-69
2022/06/24 09:53:36;;;;;;;8.80;1.30;;;;;;;37.61;18.16;100206.16;5529685;32;34247;-69
2022/06/24 09:56:40;;;;;;;2.08;0.85;;;;;;;37.59;18.15;100205.72;5529784;32;34557;-70
2022/06/24 10:03:18;;;;;;;3.87;1.08;;;;;;;39.74;16.79;100203.78;5512231;32;34223;-69
2022/06/24 10:06:23;;;;;;;2.00;1.10;;;;;;;39.26;16.48;100196.03;5529682;32;34090;-69
2022/06/24 10:09:30;;;;;;;1.33;1.08;;;;;;;38.88;17.64;100185.69;5529329;32;33889;-68
2022/06/24 10:12:44;;;;;;;1.70;0.90;;;;;;;39.54;16.78;100191.91;5528663;32;34691;-68
2022/06/24 10:15:48;;;;;;;3.12;1.00;;;;;;;39.84;16.09;100185.75;5529770;32;33539;-69
2022/06/24 10:18:52;;;;;;;1.85;1.08;;;;;;;40.35;16.32;100180.69;5529898;32;34274;-69
2022/06/24 10:21:55;;;;;;;2.35;0.90;;;;;;;41.12;15.03;100169.16;5529203;32;34011;-67
2022/06/24 10:24:57;;;;;;;3.87;1.20;;;;;;;40.20;14.86;100184.41;5529112;32;35400;-68
2022/06/24 10:28:01;;;;;;;4.20;1.15;;;;;;;38.40;16.12;100181.31;5529271;32;35306;-70
2022/06/24 10:31:04;;;;;;;2.60;0.98;;;;;;;38.92;16.13;100169.94;5531146;32;33969;-68
2022/06/24 10:34:08;;;;;;;3.80;1.10;;;;;;;40.58;15.69;100162.00;5531738;32;34029;-68
2022/06/24 10:37:23;;;;;;;3.67;1.30;;;;;;;41.73;16.16;100162.34;5531173;32;34378;-69
2022/06/24 10:40:32;;;;;;;4.00;1.33;;;;;;;40.88;15.11;100153.72;5531734;32;33978;-67
2022/06/24 10:43:37;;;;;;;6.18;1.77;;;;;;;39.58;17.49;100158.66;5531759;32;33940;-67
2022/06/24 10:46:40;;;;;;;1.62;1.08;;;;;;;39.55;17.11;100140.72;5531923;32;35192;-68
2022/06/24 10:49:52;;;;;;;3.35;1.10;;;;;;;38.72;16.09;100146.09;5531506;32;33907;-67
2022/06/24 10:53:02;;;;;;;0.80;0.80;;;;;;;39.90;15.26;100146.16;5531971;32;34254;-68
2022/06/24 10:56:05;;;;;;;3.65;1.00;;;;;;;41.90;14.25;100145.81;5531110;32;34322;-68
2022/06/24 10:59:08;;;;;;;2.20;1.00;;;;;;;42.93;13.53;100135.41;5531488;32;34066;-68
2022/06/24 11:02:11;;;;;;;4.22;1.17;;;;;;;42.30;13.94;100124.66;5531931;32;33989;-68
2022/06/24 11:05:26;;;;;;;4.87;1.10;;;;;;;42.57;12.92;100131.59;5531279;32;34521;-67
2022/06/24 11:08:28;;;;;;;4.12;1.17;;;;;;;40.97;15.86;100120.84;5532115;32;34392;-67
2022/06/24 11:11:32;;;;;;;3.78;0.80;;;;;;;41.31;14.69;100120.84;5531211;32;33934;-67
2022/06/24 11:14:37;;;;;;;3.42;1.08;;;;;;;42.67;13.41;100116.94;5531588;32;33484;-68
2022/06/24 11:17:41;;;;;;;4.28;1.10;;;;;;;40.14;15.18;100105.25;5531723;32;33902;-68
2022/06/24 11:20:54;;;;;;;1.87;1.02;;;;;;;41.90;14.33;100111.56;5530945;32;34716;-68
2022/06/24 11:24:01;;;;;;;2.30;1.10;;;;;;;41.96;14.07;100101.66;5531510;32;34361;-69
2022/06/24 11:27:04;;;;;;;3.55;1.10;;;;;;;41.04;14.24;100097.91;5531428;32;35060;-68
2022/06/24 11:30:09;;;;;;;1.65;0.93;;;;;;;42.73;12.95;100107.03;5531662;32;32716;-69
2022/06/24 11:33:25;;;;;;;2.53;1.17;;;;;;;42.77;13.44;100090.28;5531426;32;34793;-68
2022/06/24 11:36:31;;;;;;;3.53;1.23;;;;;;;41.70;13.57;100088.66;5531381;32;34634;-69
2022/06/24 11:39:34;;;;;;;2.60;1.08;;;;;;;42.27;13.37;100089.97;5531045;32;34680;-69
2022/06/24 11:42:37;;;;;;;1.40;1.02;;;;;;;43.20;12.66;100092.06;5530877;32;33900;-68
2022/06/24 11:45:42;;;;;;;4.93;1.00;;;;;;;42.87;13.84;100081.97;5531431;32;33973;-68
2022/06/24 11:48:45;;;;;;;2.92;1.12;;;;;;;43.42;13.00;100081.75;5531224;32;34510;-68
2022/06/24 11:51:48;;;;;;;4.25;0.98;;;;;;;44.37;12.28;100072.62;5531002;32;33947;-67
2022/06/24 11:54:51;;;;;;;2.97;0.90;;;;;;;44.06;11.83;100073.44;5531428;32;34001;-67
2022/06/24 11:57:58;;;;;;;1.17;0.98;;;;;;;40.11;14.79;100061.56;5531145;32;34833;-67
2022/06/24 12:01:01;;;;;;;;;;;;;;;37.35;18.32;100053.56;5531705;32;34090;-67
2022/06/24 12:04:10;;;;;;;2.62;1.10;;;;;;;39.63;15.56;100063.94;5531039;32;34229;-68
2022/06/24 12:07:13;;;;;;;4.22;1.20;;;;;;;41.69;13.69;100059.22;5531220;32;33951;-68
2022/06/24 12:10:16;;;;;;;2.33;1.20;;;;;;;43.77;12.35;100053.06;5531235;32;34334;-67
2022/06/24 12:13:32;;;;;;;3.87;1.10;;;;;;;44.48;13.27;100053.00;5530465;32;34055;-67
2022/06/24 12:16:57;;;;;;;3.05;1.20;;;;;;;45.20;12.26;100055.13;5530715;32;33571;-68
2022/06/24 12:20:04;;;;;;;2.28;1.20;;;;;;;44.26;12.47;100040.25;5531152;32;34411;-68
2022/06/24 12:23:18;;;;;;;4.45;1.12;;;;;;;45.28;11.73;100041.84;5517992;32;33725;-68
2022/06/24 12:26:24;;;;;;;2.95;1.30;;;;;;;44.54;11.38;100043.00;5530437;32;34043;-68
2022/06/24 12:29:32;;;;;;;2.15;1.20;;;;;;;44.34;11.98;100039.06;5530921;32;34440;-68
2022/06/24 12:32:52;;;;;;;2.00;1.40;;;;;;;45.30;10.83;100037.44;5531108;32;33886;-68
2022/06/24 12:36:09;;;;;;;4.55;1.50;;;;;;;45.89;10.73;100031.00;5530991;32;34515;-67
2022/06/24 12:39:12;;;;;;;3.87;1.80;;;;;;;47.41;10.32;100034.75;5530961;32;34182;-67
2022/06/24 12:42:17;;;;;;;5.40;1.95;;;;;;;45.70;10.81;100027.56;5530848;32;34163;-67
2022/06/24 12:45:24;;;;;;;3.45;2.10;;;;;;;46.30;10.92;100017.75;5531000;32;34371;-69
2022/06/24 12:51:50;;;;;;;3.35;1.87;;;;;;;44.83;11.70;100005.28;5530009;32;34009;-68
2022/06/24 12:54:53;;;;;;;6.40;1.75;;;;;;;44.56;11.27;100002.19;5530659;32;34797;-69
2022/06/24 12:58:00;;;;;;;3.67;1.55;;;;;;;45.20;10.72;100001.09;5530783;32;34251;-68
2022/06/24 13:01:05;;;;;;;4.90;1.90;;;;;;;46.14;10.15;100003.50;5530884;32;34183;-68
2022/06/24 13:04:09;;;;;;;4.15;2.30;;;;;;;46.14;10.48;100001.47;5530439;32;35343;-68
2022/06/24 13:07:12;;;;;;;2.83;2.10;;;;;;;45.85;10.60;100000.97;5530752;32;34085;-69
2022/06/24 13:10:18;;;;;;;2.12;1.65;;;;;;;46.17;11.43;99999.91;5530258;32;34680;-68
2022/06/24 13:13:21;;;;;;;2.20;1.40;;;;;;;46.79;10.13;99990.31;5530454;32;34054;-69
2022/06/24 13:16:23;;;;;;;2.85;1.35;;;;;;;45.42;10.48;99975.34;5529698;32;32552;-67
2022/06/24 13:19:26;;;;;;;4.28;1.20;;;;;;;46.04;10.61;99962.34;5530508;32;34114;-66
2022/06/24 13:22:29;;;;;;;4.32;1.08;;;;;;;44.96;11.08;99952.44;5530584;32;33972;-67
2022/06/24 13:25:33;;;;;;;1.95;1.10;;;;;;;44.69;11.04;99952.19;5530151;32;34704;-67
2022/06/24 13:28:37;;;;;;;1.85;1.05;;;;;;;45.54;10.57;99948.03;5530016;32;33920;-67
2022/06/24 13:31:41;;;;;;;4.53;1.23;;;;;;;46.31;10.24;99948.44;5529997;32;34575;-67
2022/06/24 13:34:44;;;;;;;1.33;0.90;;;;;;;46.19;10.20;99946.97;5530139;32;34612;-68
2022/06/24 13:37:47;;;;;;;5.10;1.20;;;;;;;43.55;11.61;99937.72;5529831;32;33906;-66
2022/06/24 13:40:50;;;;;;;1.30;0.90;;;;;;;45.03;12.20;99935.59;5529918;32;33997;-67
2022/06/24 13:43:57;;;;;;;1.48;1.00;;;;;;;46.55;10.24;99938.91;5530112;32;34718;-67
2022/06/24 13:47:00;;;;;;;9.02;1.20;;;;;;;45.58;10.57;99929.97;5528788;32;34175;-67
2022/06/24 13:50:04;;;;;;;2.85;1.08;;;;;;;46.73;10.39;99933.84;5529847;32;34015;-67
2022/06/24 13:53:07;;;;;;;2.87;1.08;;;;;;;45.29;10.83;99934.19;5529861;32;34166;-66
2022/06/24 13:56:12;;;;;;;3.62;0.98;;;;;;;44.79;11.06;99939.34;5529555;32;34039;-67
2022/06/24 13:59:15;;;;;;;2.45;1.17;;;;;;;46.20;11.19;99934.53;5529363;32;33972;-67
2022/06/24 14:02:18;;;;;;;1.98;1.02;;;;;;;46.92;9.55;99933.16;5528863;32;34713;-68
2022/06/24 14:05:31;;;;;;;1.92;1.20;;;;;;;47.15;9.82;99931.63;5531027;32;33909;-67
2022/06/24 14:08:36;;;;;;;3.17;1.10;;;;;;;46.73;9.71;99919.00;5531755;32;34051;-67
2022/06/24 14:11:40;;;;;;;5.97;1.30;;;;;;;46.04;9.70;99923.09;5531663;32;34549;-67
2022/06/24 14:14:45;;;;;;;3.62;1.33;;;;;;;48.90;8.71;99925.00;5531523;32;34025;-67
2022/06/24 14:17:48;;;;;;;2.90;1.12;;;;;;;46.59;9.70;99923.63;5531484;32;33966;-67
2022/06/24 14:20:51;;;;;;;1.45;1.17;;;;;;;46.56;10.63;99921.66;5531442;32;33869;-68
2022/06/24 14:27:18;;;;;;;3.60;0.98;;;;;;;45.18;10.62;99917.47;5530856;32;35197;-67
2022/06/24 14:30:23;;;;;;;1.33;0.85;;;;;;;42.65;12.44;99914.84;5531053;32;34059;-67
2022/06/24 14:33:25;;;;;;;2.80;0.90;;;;;;;41.20;13.69;99906.44;5531082;32;35742;-68
2022/06/24 14:36:28;;;;;;;1.95;1.00;;;;;;;43.02;12.90;99906.16;5531301;32;34401;-67
2022/06/24 14:42:54;;;;;;;1.50;0.90;;;;;;;44.81;10.45;99897.75;5531131;32;33982;-67
2022/06/24 14:45:57;;;;;;;1.70;1.05;;;;;;;44.63;10.63;99894.25;5530837;32;34176;-68
2022/06/24 14:49:01;;;;;;;2.40;0.82;;;;;;;44.46;10.49;99891.12;5531100;32;34604;-68